CheckWX is a tool to help pilots better visualize weather data.  It is not intended as a substitute for an official pre-flight weather briefing.

23:56:25 UTC

KGFL TAF
Floyd Bennett Memorial Airport
Glens Falls, New York, USA
KGFL 202327Z 2100/2124 29005KT P6SM FEW050 FM210200 VRB03KT P6SM SKC FM211600 18005KT P6SM SCT040

Feb-21@
00:00 UTC

Feb-21 @ 00:00 UTC

Feb-21@
02:00 UTC

Feb-21 @ 02:00 UTC

KGFL 202327Z 2100/2124 29005KT P6SM FEW050
Wind
  • 290° at 5 KTS
Cloud Levels
  • Few at 5,000' AGL

Feb-21@
02:00 UTC

Feb-21 @ 02:00 UTC

Feb-21@
16:00 UTC

Feb-21 @ 16:00 UTC

FM210200 VRB03KT P6SM SKC

From

From Standard forecast or significant change

Wind
  • Variable at 3 KTS
Cloud Levels
  • Clear skies

Feb-21@
16:00 UTC

Feb-21 @ 16:00 UTC

Feb-22@
00:00 UTC

Feb-22 @ 00:00 UTC

FM211600 18005KT P6SM SCT040

From

From Standard forecast or significant change

Wind
  • 180° at 5 KTS
Cloud Levels
  • Scattered at 4,000' AGL